Newport, United Kingdom
Current Conditions -  °F | °C
As of 6:50 PM on Sunday 21 Dec 2014 (Local Time) from EGGD Reporting Station
Broken Clouds Broken Clouds  
Wind Chill: 50°   Ceiling: 900
Heat Index: 50°   Visibility: 6mi
Dew Point: 48°   Wind: 18mph
Humidity: 94%   Direction: 240°WSW
Pressure: 30.21"   Gusts: NA
Location:  51.59°N, 3°W
Report Text: EGGD 211850Z 24016KT 9999 BKN009 10/09 Q1023
Loading
Personal Weather Stations






























Interactive Weather Map New forecast layout! Learn more

10-Day Weather Forecast

Advertisements
Track Severe Weather on mobile